Time;durP1;ratioP1;P1;durP2;ratioP2;P2;SDS_P1;SDS_P2;PMS_P1;PMS_P2;Temp;Humidity;BMP_temperature;BMP_pressure;BME280_temperature;BME280_humidity;BME280_pressure;Samples;Min_cycle;Max_cycle;Signal;HPM_P1;HPM_P2
2023/07/03 00:01:18;;;;;;;17.20;14.33;;;20.50;30.60;;;;;;10425961;28;20228;-66
2023/07/03 00:06:22;;;;;;;15.03;13.43;;;20.50;30.40;;;;;;10433391;28;20257;-66
2023/07/03 00:11:26;;;;;;;17.13;15.33;;;20.40;30.10;;;;;;10447501;28;20243;-66
2023/07/03 00:16:30;;;;;;;16.70;14.87;;;20.30;30.70;;;;;;10439080;28;20693;-66
2023/07/03 00:21:43;;;;;;;17.27;14.10;;;20.10;30.30;;;;;;10448947;28;20235;-66
2023/07/03 00:26:48;;;;;;;14.47;12.97;;;20.00;30.60;;;;;;10437807;28;20228;-67
2023/07/03 00:31:51;;;;;;;15.50;13.90;;;20.00;31.20;;;;;;10434778;28;20232;-66
2023/07/03 00:36:55;;;;;;;14.63;12.77;;;19.90;30.70;;;;;;10446691;28;20235;-66
2023/07/03 00:42:00;;;;;;;13.73;12.10;;;19.90;30.70;;;;;;10441205;28;20721;-66
2023/07/03 00:47:04;;;;;;;18.80;13.97;;;19.90;31.10;;;;;;10440682;28;20225;-66
2023/07/03 00:52:10;;;;;;;15.47;13.80;;;19.90;31.00;;;;;;10451350;28;20697;-66
2023/07/03 00:57:16;;;;;;;19.47;13.77;;;19.80;31.80;;;;;;10448045;28;20233;-66
2023/07/03 01:02:25;;;;;;;15.33;13.80;;;19.60;31.50;;;;;;10444894;28;20229;-66
2023/07/03 01:07:32;;;;;;;16.93;13.60;;;19.40;31.80;;;;;;10442855;28;20237;-66
2023/07/03 01:12:41;;;;;;;15.50;13.53;;;19.30;32.10;;;;;;10436276;28;20895;-67
2023/07/03 01:17:47;;;;;;;16.37;14.67;;;19.20;32.20;;;;;;10442859;28;20229;-66
2023/07/03 01:22:59;;;;;;;18.60;14.07;;;19.10;32.10;;;;;;10432159;28;20275;-66
2023/07/03 01:28:05;;;;;;;14.60;13.10;;;19.00;32.60;;;;;;10435717;28;20220;-67
2023/07/03 01:33:12;;;;;;;15.67;13.40;;;18.90;32.40;;;;;;10440586;28;20228;-66
2023/07/03 01:38:16;;;;;;;15.93;13.60;;;18.80;32.30;;;;;;10445991;28;20232;-66
2023/07/03 01:43:22;;;;;;;16.73;13.97;;;18.80;32.20;;;;;;10428486;28;20279;-66
2023/07/03 01:48:25;;;;;;;16.73;14.93;;;18.80;32.70;;;;;;10443967;28;20229;-66
2023/07/03 01:53:32;;;;;;;17.17;13.20;;;18.80;32.00;;;;;;10439835;28;20749;-66
2023/07/03 01:58:42;;;;;;;17.80;14.50;;;18.80;32.60;;;;;;10423916;28;20231;-66
2023/07/03 02:03:49;;;;;;;14.47;12.93;;;18.70;33.30;;;;;;10425039;28;20222;-66
2023/07/03 02:08:53;;;;;;;16.30;14.57;;;18.60;32.80;;;;;;10431474;28;20228;-66
2023/07/03 02:13:58;;;;;;;15.50;13.73;;;18.60;32.80;;;;;;10432082;28;20229;-66
2023/07/03 02:19:01;;;;;;;17.43;14.40;;;18.60;33.10;;;;;;10427558;28;20228;-66
2023/07/03 02:24:05;;;;;;;16.43;14.63;;;18.50;32.60;;;;;;10420925;28;20580;-66
2023/07/03 02:29:09;;;;;;;15.87;13.80;;;18.50;33.10;;;;;;10427598;28;20225;-67
2023/07/03 02:34:13;;;;;;;15.50;13.80;;;18.30;33.40;;;;;;10426936;28;20312;-66
2023/07/03 02:39:16;;;;;;;16.67;14.90;;;18.30;33.40;;;;;;10432298;28;20225;-66
2023/07/03 02:44:20;;;;;;;17.13;14.33;;;18.30;33.50;;;;;;10429860;28;20227;-66
2023/07/03 02:49:27;;;;;;;17.37;15.40;;;18.20;34.10;;;;;;10430905;28;20320;-66
2023/07/03 02:54:30;;;;;;;18.23;14.30;;;18.20;34.00;;;;;;10432801;28;20830;-66
2023/07/03 02:59:35;;;;;;;17.33;15.07;;;18.10;34.60;;;;;;10425854;28;20225;-66
2023/07/03 03:04:38;;;;;;;16.93;14.83;;;18.10;34.80;;;;;;10432234;28;20736;-66
2023/07/03 03:09:41;;;;;;;17.43;14.70;;;18.10;34.40;;;;;;10428470;28;20253;-66
2023/07/03 03:14:46;;;;;;;17.10;14.63;;;18.10;34.60;;;;;;10430116;28;20222;-67
2023/07/03 03:19:49;;;;;;;16.60;14.30;;;18.10;34.80;;;;;;10429297;28;20708;-66
2023/07/03 03:24:52;;;;;;;16.63;14.00;;;18.10;34.80;;;;;;10428734;28;20809;-66
2023/07/03 03:29:57;;;;;;;16.30;14.50;;;18.10;34.80;;;;;;10428631;28;20232;-66
2023/07/03 03:35:00;;;;;;;17.30;13.43;;;18.10;34.80;;;;;;10436364;28;20275;-66
2023/07/03 03:40:07;;;;;;;17.00;14.43;;;18.20;35.00;;;;;;10431724;28;20657;-67
2023/07/03 03:45:12;;;;;;;16.60;13.93;;;18.10;34.80;;;;;;10424935;28;20261;-66
2023/07/03 03:50:15;;;;;;;16.73;14.63;;;18.20;34.90;;;;;;10433120;28;20231;-66
2023/07/03 03:55:18;;;;;;;16.90;14.80;;;18.20;34.90;;;;;;10435911;28;20710;-66
2023/07/03 04:00:23;;;;;;;16.40;14.60;;;18.20;34.90;;;;;;10431547;28;20702;-66
2023/07/03 04:05:26;;;;;;;16.40;14.53;;;18.20;35.50;;;;;;10425371;28;20316;-66
2023/07/03 04:10:30;;;;;;;16.33;14.00;;;18.10;34.80;;;;;;10427502;28;20232;-66
2023/07/03 04:15:37;;;;;;;16.67;13.90;;;18.10;34.80;;;;;;10428057;28;20969;-66
2023/07/03 04:20:40;;;;;;;16.33;13.00;;;18.10;36.00;;;;;;10429290;28;20606;-66
2023/07/03 04:25:43;;;;;;;17.37;13.60;;;18.10;34.90;;;;;;10435860;28;20705;-66
2023/07/03 04:30:48;;;;;;;15.30;13.67;;;18.20;35.30;;;;;;10433064;28;20225;-66
2023/07/03 04:35:52;;;;;;;18.23;13.87;;;18.30;36.10;;;;;;10429455;28;20220;-66
2023/07/03 04:40:56;;;;;;;14.53;12.60;;;18.40;35.60;;;;;;10432484;28;20767;-66
2023/07/03 04:46:03;;;;;;;16.23;13.80;;;18.50;35.90;;;;;;10421084;28;20236;-66
2023/07/03 04:51:08;;;;;;;15.20;13.53;;;18.60;36.10;;;;;;10424795;28;20236;-66
2023/07/03 04:56:11;;;;;;;16.80;13.67;;;18.70;35.40;;;;;;10432452;28;20263;-66
2023/07/03 05:01:16;;;;;;;16.57;14.03;;;18.80;35.50;;;;;;10431926;28;20317;-67
2023/07/03 05:06:19;;;;;;;17.03;13.67;;;18.90;36.30;;;;;;10438959;28;20732;-66
2023/07/03 05:11:23;;;;;;;17.17;13.80;;;19.00;35.60;;;;;;10444224;28;20233;-67
2023/07/03 05:16:27;;;;;;;16.93;14.20;;;19.00;35.60;;;;;;10437887;28;20303;-67
2023/07/03 05:21:31;;;;;;;16.07;13.87;;;19.10;36.50;;;;;;10431702;28;20228;-67
2023/07/03 05:26:34;;;;;;;17.07;13.47;;;19.10;36.10;;;;;;10433626;28;20221;-66
2023/07/03 05:31:38;;;;;;;14.67;13.10;;;19.20;36.70;;;;;;10438771;28;20960;-66
2023/07/03 05:36:42;;;;;;;16.63;14.30;;;19.30;36.80;;;;;;10430230;28;20259;-66
2023/07/03 05:41:45;;;;;;;16.17;13.57;;;19.40;36.00;;;;;;10434494;28;20221;-66
2023/07/03 05:46:51;;;;;;;19.70;13.20;;;19.40;36.20;;;;;;10428885;28;20251;-66
2023/07/03 05:51:54;;;;;;;14.77;12.73;;;19.60;37.10;;;;;;10443750;28;20291;-67
2023/07/03 05:56:58;;;;;;;16.53;13.97;;;19.60;36.20;;;;;;10439860;28;20233;-67
2023/07/03 06:02:04;;;;;;;15.17;13.40;;;19.80;36.30;;;;;;10427859;28;20255;-67
2023/07/03 06:07:09;;;;;;;17.03;13.57;;;19.80;36.70;;;;;;10442982;28;20749;-67
2023/07/03 06:12:12;;;;;;;16.27;13.83;;;19.90;36.40;;;;;;10438537;28;20848;-67
2023/07/03 06:17:17;;;;;;;15.37;12.63;;;19.90;36.40;;;;;;10429602;28;20315;-67
2023/07/03 06:22:21;;;;;;;17.10;14.07;;;20.00;36.50;;;;;;10428291;28;20933;-67
2023/07/03 06:27:24;;;;;;;17.73;13.30;;;20.10;36.60;;;;;;10426608;28;20606;-66
2023/07/03 06:32:28;;;;;;;14.97;13.37;;;20.20;36.70;;;;;;10429003;28;20239;-67
2023/07/03 06:37:31;;;;;;;15.67;13.17;;;20.30;36.80;;;;;;10424619;28;20233;-67
2023/07/03 06:42:35;;;;;;;15.50;12.93;;;20.40;36.90;;;;;;10422835;28;20316;-66
2023/07/03 06:47:40;;;;;;;15.57;12.80;;;20.50;36.90;;;;;;10431338;28;20235;-67
2023/07/03 06:52:43;;;;;;;16.07;13.03;;;20.60;37.00;;;;;;10427417;28;20232;-67
2023/07/03 06:57:46;;;;;;;14.23;11.97;;;20.80;36.80;;;;;;10426554;28;20287;-67
2023/07/03 07:02:50;;;;;;;15.70;11.77;;;20.90;36.60;;;;;;10422214;28;21364;-66
2023/07/03 07:07:54;;;;;;;14.53;11.07;;;21.20;36.60;;;;;;10427660;28;20751;-66
2023/07/03 07:12:57;;;;;;;13.23;10.67;;;21.40;36.50;;;;;;10435997;28;20359;-66
2023/07/03 07:18:01;;;;;;;14.90;9.60;;;21.60;36.00;;;;;;10426607;28;20708;-66
2023/07/03 07:23:05;;;;;;;13.10;9.33;;;21.80;34.30;;;;;;10432240;28;20282;-66
2023/07/03 07:28:08;;;;;;;12.80;8.80;;;22.00;33.70;;;;;;10427509;28;20229;-67
2023/07/03 07:33:13;;;;;;;12.10;8.70;;;22.20;33.40;;;;;;10425676;28;20225;-66
2023/07/03 07:38:16;;;;;;;12.47;8.90;;;22.30;32.30;;;;;;10435184;28;20254;-66
2023/07/03 07:43:19;;;;;;;12.50;8.93;;;22.50;32.70;;;;;;10425046;28;20225;-67
2023/07/03 07:48:24;;;;;;;10.73;8.03;;;22.60;32.70;;;;;;10425714;28;20649;-67
2023/07/03 07:53:30;;;;;;;9.93;8.00;;;22.70;32.20;;;;;;10438752;28;20236;-66
2023/07/03 07:58:34;;;;;;;11.27;7.20;;;22.80;32.50;;;;;;10434539;28;20279;-66
2023/07/03 08:03:40;;;;;;;10.60;8.10;;;23.00;32.60;;;;;;10428474;28;20231;-67
2023/07/03 08:08:44;;;;;;;10.83;8.13;;;23.20;30.90;;;;;;10431610;28;20328;-67
2023/07/03 08:13:47;;;;;;;12.93;8.90;;;23.40;31.60;;;;;;10440071;28;20256;-66
2023/07/03 08:18:52;;;;;;;9.00;8.10;;;23.60;31.20;;;;;;10432472;28;20279;-66
2023/07/03 08:23:55;;;;;;;11.30;8.17;;;23.80;30.30;;;;;;10430368;28;20351;-66
2023/07/03 08:28:58;;;;;;;10.13;8.13;;;23.80;30.90;;;;;;10428772;28;21212;-67
2023/07/03 08:34:03;;;;;;;11.27;9.10;;;24.00;30.90;;;;;;10437279;28;20239;-66
2023/07/03 08:39:06;;;;;;;11.33;7.63;;;24.20;30.00;;;;;;10439871;28;20304;-67
2023/07/03 08:44:11;;;;;;;11.10;7.80;;;24.30;30.60;;;;;;10442958;28;20228;-67
2023/07/03 08:49:19;;;;;;;11.53;7.70;;;24.30;29.10;;;;;;10432401;28;20615;-66
2023/07/03 08:54:52;;;;;;;11.97;8.20;;;24.40;28.70;;;;;;10430914;22;20225;-72
2023/07/03 08:59:55;;;;;;;10.80;8.33;;;24.50;28.80;;;;;;10398994;28;20236;-72
2023/07/03 09:05:20;;;;;;;10.50;7.90;;;24.60;29.10;;;;;;10404683;28;20229;-72
2023/07/03 09:10:32;;;;;;;10.07;7.77;;;24.70;28.50;;;;;;10402356;28;20226;-72
2023/07/03 09:15:43;;;;;;;11.17;8.20;;;24.80;28.60;;;;;;10404366;28;20229;-71
2023/07/03 09:20:48;;;;;;;13.50;8.47;;;24.80;28.20;;;;;;10406411;28;20230;-72
2023/07/03 09:25:56;;;;;;;10.47;7.60;;;24.80;28.60;;;;;;10405293;28;20655;-72
2023/07/03 09:31:05;;;;;;;9.73;7.20;;;24.90;28.60;;;;;;10404461;28;20233;-72
2023/07/03 09:36:24;;;;;;;9.10;7.63;;;24.90;28.70;;;;;;10395372;28;20237;-74
2023/07/03 09:41:29;;;;;;;11.80;7.80;;;24.90;28.60;;;;;;10402718;28;20249;-74
2023/07/03 09:46:33;;;;;;;8.90;7.53;;;24.90;28.60;;;;;;10404627;28;20811;-74
2023/07/03 09:51:38;;;;;;;9.90;7.60;;;24.90;28.60;;;;;;10404207;28;20253;-74
2023/07/03 09:56:41;;;;;;;12.03;7.57;;;24.90;28.60;;;;;;10403840;28;20229;-74
2023/07/03 10:01:44;;;;;;;9.57;7.57;;;25.00;28.70;;;;;;10402993;28;20493;-74
2023/07/03 10:07:02;;;;;;;8.57;6.93;;;25.10;28.70;;;;;;10403453;28;20232;-72
2023/07/03 10:12:11;;;;;;;7.40;6.47;;;25.20;27.80;;;;;;10401793;28;20239;-72
2023/07/03 10:17:18;;;;;;;8.40;6.27;;;25.40;27.80;;;;;;10398607;28;20309;-75
2023/07/03 10:22:25;;;;;;;8.50;6.50;;;25.70;27.50;;;;;;10392759;28;20919;-73
2023/07/03 10:27:30;;;;;;;10.07;7.10;;;25.80;26.30;;;;;;10393949;28;20232;-74
2023/07/03 10:32:36;;;;;;;8.37;6.70;;;25.90;27.00;;;;;;10395723;28;20264;-75
2023/07/03 10:37:48;;;;;;;7.83;6.30;;;25.90;26.70;;;;;;10394574;28;20237;-75
2023/07/03 10:42:55;;;;;;;7.47;6.47;;;26.00;26.20;;;;;;10394953;28;20817;-76
2023/07/03 10:48:03;;;;;;;9.07;6.57;;;26.00;25.90;;;;;;10402956;28;20253;-74
2023/07/03 10:53:19;;;;;;;9.73;6.97;;;26.00;26.00;;;;;;10397036;28;20241;-77
2023/07/03 10:58:35;;;;;;;10.00;6.70;;;26.00;25.40;;;;;;10395691;28;20279;-77
2023/07/03 11:03:47;;;;;;;9.03;6.63;;;25.90;25.30;;;;;;10392323;28;20233;-76
2023/07/03 11:09:17;;;;;;;8.90;6.83;;;25.90;25.50;;;;;;10397405;28;20221;-74
2023/07/03 11:14:25;;;;;;;6.63;5.80;;;25.90;25.70;;;;;;10399203;28;20433;-74
2023/07/03 11:19:39;;;;;;;8.83;6.63;;;25.80;25.70;;;;;;10389878;28;20809;-76
2023/07/03 11:24:58;;;;;;;8.27;6.23;;;25.70;24.70;;;;;;10394505;28;20231;-76
2023/07/03 11:30:02;;;;;;;7.27;5.77;;;25.70;25.30;;;;;;10393666;28;20263;-73
2023/07/03 11:35:08;;;;;;;8.57;6.37;;;25.60;25.80;;;;;;10390197;28;20317;-73
2023/07/03 11:40:35;;;;;;;6.53;5.57;;;25.60;25.90;;;;;;10387628;28;20504;-76
2023/07/03 11:45:39;;;;;;;6.37;5.60;;;25.70;25.70;;;;;;10394741;28;20237;-74
2023/07/03 11:50:42;;;;;;;8.37;6.23;;;25.70;26.30;;;;;;10396725;28;20316;-74
2023/07/03 11:55:47;;;;;;;7.47;6.03;;;25.80;25.60;;;;;;10399283;28;20360;-74
2023/07/03 12:01:24;;;;;;;8.87;5.53;;;26.00;25.40;;;;;;10394402;28;20226;-74
2023/07/03 12:06:47;;;;;;;7.17;5.57;;;26.00;24.50;;;;;;10395709;28;20224;-73
2023/07/03 12:12:14;;;;;;;7.87;5.40;;;26.10;24.40;;;;;;10398060;28;20262;-74
2023/07/03 12:17:18;;;;;;;7.00;5.83;;;26.10;24.20;;;;;;10396444;28;20213;-73
2023/07/03 12:22:24;;;;;;;7.73;5.40;;;26.10;25.30;;;;;;10400602;28;20233;-74
2023/07/03 12:27:29;;;;;;;9.23;6.00;;;26.10;25.40;;;;;;10398943;28;20241;-74
2023/07/03 12:32:35;;;;;;;6.63;5.53;;;26.30;24.50;;;;;;10403179;28;20225;-73
2023/07/03 12:37:43;;;;;;;7.57;5.80;;;26.50;24.40;;;;;;10401343;28;20320;-74
2023/07/03 12:42:48;;;;;;;6.67;5.50;;;26.70;24.10;;;;;;10405963;28;20312;-74
2023/07/03 12:48:01;;;;;;;10.93;5.63;;;26.90;23.70;;;;;;10405163;28;20221;-73
2023/07/03 12:53:04;;;;;;;6.50;5.10;;;27.00;22.50;;;;;;10400357;28;20226;-74
2023/07/03 12:58:10;;;;;;;7.07;5.10;;;27.00;23.70;;;;;;10395996;28;20225;-74
2023/07/03 13:03:16;;;;;;;5.33;4.63;;;27.10;23.10;;;;;;10398944;28;20696;-73
2023/07/03 13:08:19;;;;;;;6.10;5.00;;;27.20;22.70;;;;;;10400301;28;20222;-75
2023/07/03 13:13:24;;;;;;;5.90;4.90;;;27.10;23.20;;;;;;10404150;28;20336;-76
2023/07/03 13:18:27;;;;;;;6.43;5.03;;;27.20;22.80;;;;;;10404001;28;20237;-76
2023/07/03 13:23:33;;;;;;;7.70;5.20;;;27.30;23.20;;;;;;10412108;28;20592;-76
2023/07/03 13:28:40;;;;;;;6.40;5.07;;;27.30;22.40;;;;;;10414065;28;20229;-76
2023/07/03 13:33:59;;;;;;;8.10;5.33;;;27.30;21.90;;;;;;10409994;28;20321;-76
2023/07/03 13:39:05;;;;;;;8.20;5.27;;;27.20;22.30;;;;;;10411403;28;20229;-75
2023/07/03 13:44:12;;;;;;;6.33;5.03;;;27.20;22.20;;;;;;10409426;28;20916;-77
2023/07/03 13:49:16;;;;;;;8.87;5.77;;;27.10;21.50;;;;;;10413399;28;20316;-75
2023/07/03 13:54:19;;;;;;;7.20;5.20;;;27.10;22.30;;;;;;10411624;28;20253;-76
2023/07/03 13:59:24;;;;;;;7.57;5.33;;;27.10;22.50;;;;;;10409817;28;20551;-76
2023/07/03 14:04:27;;;;;;;7.50;5.20;;;27.00;22.30;;;;;;10411898;28;20268;-76
2023/07/03 14:09:30;;;;;;;6.60;5.30;;;27.10;22.50;;;;;;10410885;28;20226;-77
2023/07/03 14:14:35;;;;;;;7.17;5.20;;;27.20;22.30;;;;;;10412909;28;20237;-76
2023/07/03 14:19:38;;;;;;;6.17;5.00;;;27.20;21.90;;;;;;10411662;28;20232;-76
2023/07/03 14:24:41;;;;;;;6.20;5.27;;;27.20;22.40;;;;;;10411991;28;20253;-76
2023/07/03 14:29:46;;;;;;;8.20;5.20;;;27.20;22.30;;;;;;10414487;28;20231;-76
2023/07/03 14:34:49;;;;;;;6.50;5.77;;;27.20;22.20;;;;;;10411023;28;20229;-76
2023/07/03 14:39:52;;;;;;;7.87;5.17;;;27.20;22.20;;;;;;10410974;28;20312;-75
2023/07/03 14:44:57;;;;;;;9.83;5.67;;;27.30;22.40;;;;;;10410285;28;20285;-77
2023/07/03 14:50:00;;;;;;;9.63;5.93;;;27.40;21.90;;;;;;10411648;28;20240;-75
2023/07/03 14:55:04;;;;;;;9.57;5.70;;;27.60;22.20;;;;;;10404481;28;20335;-78
2023/07/03 15:00:11;;;;;;;8.93;5.70;;;27.60;21.90;;;;;;10414810;28;20226;-76
2023/07/03 15:05:14;;;;;;;9.13;5.50;;;27.70;21.00;;;;;;10413091;28;20226;-78
2023/07/03 15:10:17;;;;;;;9.67;6.10;;;27.70;21.40;;;;;;10415833;28;20245;-78
2023/07/03 15:15:21;;;;;;;8.40;5.80;;;27.70;21.20;;;;;;10405584;28;20312;-79
2023/07/03 15:20:27;;;;;;;8.77;5.60;;;27.60;21.10;;;;;;10411337;28;20235;-79
2023/07/03 15:25:30;;;;;;;7.70;5.20;;;27.50;20.90;;;;;;10409301;28;20312;-76
2023/07/03 15:30:39;;;;;;;8.03;5.47;;;27.40;21.60;;;;;;10414336;28;20261;-79
2023/07/03 15:35:46;;;;;;;7.93;5.60;;;27.40;21.10;;;;;;10416232;28;20233;-79
2023/07/03 15:40:53;;;;;;;6.83;5.43;;;27.50;21.60;;;;;;10413198;28;20284;-79
2023/07/03 15:46:04;;;;;;;8.60;5.03;;;27.50;21.00;;;;;;10414401;28;20718;-79
2023/07/03 15:51:10;;;;;;;7.40;5.23;;;27.50;20.60;;;;;;10410769;28;20238;-79
2023/07/03 15:56:15;;;;;;;7.83;5.47;;;27.50;21.10;;;;;;10413597;28;20669;-78
2023/07/03 16:01:21;;;;;;;7.13;4.77;;;27.50;20.90;;;;;;10411458;28;20738;-79
2023/07/03 16:06:27;;;;;;;5.77;4.80;;;27.50;20.70;;;;;;10407380;28;20256;-78
2023/07/03 16:11:34;;;;;;;7.13;4.53;;;27.50;21.00;;;;;;10414764;28;20226;-78
2023/07/03 16:16:39;;;;;;;6.37;4.30;;;27.60;21.00;;;;;;10414222;28;20626;-79
2023/07/03 16:21:42;;;;;;;7.17;4.77;;;27.60;20.30;;;;;;10412433;28;20694;-79
2023/07/03 16:26:45;;;;;;;7.07;4.87;;;27.50;20.70;;;;;;10415041;28;20324;-78
2023/07/03 16:31:52;;;;;;;5.53;4.07;;;27.50;20.50;;;;;;10408967;28;20226;-79
2023/07/03 16:36:56;;;;;;;6.47;4.50;;;27.40;20.00;;;;;;10401521;28;20240;-78
2023/07/03 16:41:59;;;;;;;6.23;3.80;;;27.40;20.60;;;;;;10406972;28;20598;-76
2023/07/03 16:47:04;;;;;;;5.47;4.00;;;27.40;20.60;;;;;;10406116;28;20254;-77
2023/07/03 16:52:08;;;;;;;4.60;3.93;;;27.40;19.80;;;;;;10407737;28;20260;-76
2023/07/03 16:57:11;;;;;;;5.00;3.33;;;27.30;19.70;;;;;;10416910;28;20232;-78
2023/07/03 17:02:16;;;;;;;4.33;3.70;;;27.20;20.00;;;;;;10424127;28;20304;-80
2023/07/03 17:07:22;;;;;;;5.07;3.77;;;27.20;19.70;;;;;;10408381;28;20229;-80
2023/07/03 17:12:25;;;;;;;4.37;3.60;;;27.30;19.70;;;;;;10420518;28;20305;-79
2023/07/03 17:17:30;;;;;;;4.50;3.53;;;27.30;20.20;;;;;;10417158;28;20976;-78
2023/07/03 17:22:33;;;;;;;4.20;3.67;;;27.30;19.70;;;;;;10415218;28;20230;-79
2023/07/03 17:27:36;;;;;;;4.53;3.30;;;27.20;19.70;;;;;;10414786;28;20252;-77
2023/07/03 17:32:41;;;;;;;4.27;3.43;;;27.20;19.70;;;;;;10424606;28;20296;-79
2023/07/03 17:37:45;;;;;;;4.30;3.13;;;27.10;19.60;;;;;;10420233;28;20938;-79
2023/07/03 17:42:48;;;;;;;4.93;3.50;;;27.10;19.80;;;;;;10422304;28;20237;-80
2023/07/03 17:47:53;;;;;;;4.43;2.83;;;27.10;19.60;;;;;;10423367;28;20252;-80
2023/07/03 17:52:57;;;;;;;4.00;2.80;;;27.10;19.60;;;;;;10424202;28;20675;-79
2023/07/03 17:58:01;;;;;;;3.30;2.90;;;27.10;19.60;;;;;;10425622;28;20240;-80
2023/07/03 18:03:07;;;;;;;4.10;3.20;;;27.10;19.60;;;;;;10422178;28;20225;-79
2023/07/03 18:08:11;;;;;;;4.53;3.23;;;27.10;19.60;;;;;;10420572;28;20230;-79
2023/07/03 18:13:14;;;;;;;4.87;3.17;;;27.10;19.60;;;;;;10418735;28;20228;-79
2023/07/03 18:18:19;;;;;;;5.07;2.90;;;27.00;19.70;;;;;;10422334;28;20233;-80
2023/07/03 18:23:23;;;;;;;3.60;2.80;;;27.00;19.70;;;;;;10417738;28;20574;-80
2023/07/03 18:28:26;;;;;;;3.80;2.87;;;27.00;20.10;;;;;;10409312;28;21110;-78
2023/07/03 18:33:30;;;;;;;3.83;2.80;;;27.00;19.90;;;;;;10405413;28;20293;-76
2023/07/03 18:38:39;;;;;;;5.33;2.90;;;27.00;20.20;;;;;;10403384;28;20230;-80
2023/07/03 18:43:42;;;;;;;4.70;3.23;;;26.90;20.00;;;;;;10406072;28;20279;-79
2023/07/03 18:48:47;;;;;;;3.90;3.00;;;26.80;20.20;;;;;;10407136;28;20308;-80
2023/07/03 18:53:51;;;;;;;3.67;3.00;;;26.80;20.50;;;;;;10403708;28;20226;-78
2023/07/03 18:58:54;;;;;;;4.17;3.13;;;26.70;20.90;;;;;;10398060;28;20501;-78
2023/07/03 19:03:59;;;;;;;4.57;3.00;;;26.60;21.10;;;;;;10408050;28;20651;-78
2023/07/03 19:09:03;;;;;;;3.30;2.87;;;26.60;21.10;;;;;;10401143;28;20229;-78
2023/07/03 19:14:06;;;;;;;4.20;2.90;;;26.50;21.30;;;;;;10399990;28;20233;-80
2023/07/03 19:19:11;;;;;;;3.73;2.80;;;26.50;21.40;;;;;;10401415;28;20707;-79
2023/07/03 19:24:14;;;;;;;3.67;2.70;;;26.40;21.50;;;;;;10408323;28;20225;-81
2023/07/03 19:29:17;;;;;;;21.10;4.27;;;26.30;21.60;;;;;;10414410;28;20245;-83
2023/07/03 19:34:22;;;;;;;17.20;4.37;;;26.30;21.60;;;;;;10416710;28;20258;-80
2023/07/03 19:39:25;;;;;;;10.50;3.40;;;26.10;21.80;;;;;;10408775;28;20332;-80
2023/07/03 19:44:29;;;;;;;6.57;3.17;;;25.80;21.90;;;;;;10408115;28;20883;-78
2023/07/03 19:49:33;;;;;;;7.23;3.37;;;25.40;22.30;;;;;;10408986;28;20325;-80
2023/07/03 19:54:39;;;;;;;4.13;2.93;;;25.00;22.70;;;;;;10405152;28;20283;-77
2023/07/03 19:59:42;;;;;;;5.17;3.30;;;24.80;22.90;;;;;;10402911;28;20221;-78
2023/07/03 20:04:46;;;;;;;5.07;3.20;;;24.80;23.30;;;;;;10399117;28;20316;-78
2023/07/03 20:09:51;;;;;;;3.87;3.27;;;24.70;23.50;;;;;;10407491;28;20247;-78
2023/07/03 20:14:54;;;;;;;3.70;3.40;;;24.70;23.60;;;;;;10401639;28;20329;-76
2023/07/03 20:19:59;;;;;;;4.00;3.40;;;24.70;23.60;;;;;;10402535;28;20233;-76
2023/07/03 20:25:02;;;;;;;4.97;3.40;;;24.60;23.70;;;;;;10399629;28;20788;-76
2023/07/03 20:30:08;;;;;;;3.77;3.40;;;24.50;23.60;;;;;;10410011;28;20256;-76
2023/07/03 20:35:12;;;;;;;4.77;3.60;;;24.40;23.80;;;;;;10406820;28;20785;-76
2023/07/03 20:40:15;;;;;;;4.60;3.37;;;24.30;23.90;;;;;;10406480;28;20221;-76
2023/07/03 20:45:19;;;;;;;5.77;3.23;;;24.10;23.70;;;;;;10408777;28;20755;-76
2023/07/03 20:50:25;;;;;;;5.57;3.70;;;23.90;23.80;;;;;;10409021;28;20233;-76
2023/07/03 20:55:42;;;;;;;3.80;3.37;;;23.80;24.10;;;;;;10406129;28;20241;-76
2023/07/03 21:00:46;;;;;;;6.50;3.73;;;23.70;24.10;;;;;;10405912;28;20252;-76
2023/07/03 21:05:51;;;;;;;5.83;3.67;;;23.60;24.30;;;;;;10405179;28;20260;-76
2023/07/03 21:10:58;;;;;;;5.20;3.30;;;23.30;24.40;;;;;;10406704;28;20272;-76
2023/07/03 21:16:03;;;;;;;5.27;3.30;;;23.10;25.00;;;;;;10406666;28;20264;-76
2023/07/03 21:21:12;;;;;;;4.67;3.50;;;22.90;24.90;;;;;;10408999;28;20237;-76
2023/07/03 21:26:17;;;;;;;4.20;3.60;;;22.70;25.60;;;;;;10407760;28;20233;-75
2023/07/03 21:31:24;;;;;;;4.37;3.53;;;22.50;25.40;;;;;;10407621;28;20333;-75
2023/07/03 21:36:30;;;;;;;7.27;3.70;;;22.40;25.70;;;;;;10406983;28;20230;-75
2023/07/03 21:41:35;;;;;;;5.50;3.67;;;22.30;26.10;;;;;;10406975;28;20253;-76
2023/07/03 21:46:39;;;;;;;5.07;3.87;;;22.40;25.90;;;;;;10404456;28;20966;-76
2023/07/03 21:51:44;;;;;;;6.00;4.10;;;22.20;25.70;;;;;;10412500;28;20705;-75
2023/07/03 21:56:47;;;;;;;5.07;3.97;;;22.00;26.40;;;;;;10406767;28;20289;-76
2023/07/03 22:01:51;;;;;;;4.37;3.77;;;21.90;26.30;;;;;;10408452;28;20724;-75
2023/07/03 22:06:56;;;;;;;5.03;3.77;;;21.80;26.50;;;;;;10405675;28;20283;-76
2023/07/03 22:12:00;;;;;;;4.60;3.53;;;21.80;26.90;;;;;;10409805;28;20283;-75
2023/07/03 22:17:04;;;;;;;5.90;3.70;;;21.80;26.70;;;;;;10407091;28;20244;-76
2023/07/03 22:22:09;;;;;;;4.37;3.23;;;21.70;26.70;;;;;;10409820;28;20225;-76
2023/07/03 22:27:12;;;;;;;4.60;3.50;;;21.60;27.20;;;;;;10407171;28;20260;-75
2023/07/03 22:32:15;;;;;;;4.70;3.63;;;21.60;27.20;;;;;;10407557;28;20222;-76
2023/07/03 22:37:20;;;;;;;6.93;3.90;;;21.70;27.20;;;;;;10406902;28;20221;-76
2023/07/03 22:42:23;;;;;;;5.77;3.60;;;21.60;27.90;;;;;;10409056;28;20233;-76
2023/07/03 22:47:29;;;;;;;5.47;3.53;;;21.60;27.40;;;;;;10407699;28;20312;-75
2023/07/03 22:52:35;;;;;;;4.10;3.40;;;21.50;27.60;;;;;;10403687;28;20658;-75
2023/07/03 22:57:38;;;;;;;7.00;3.97;;;21.40;28.20;;;;;;10404851;28;20234;-76
2023/07/03 23:02:42;;;;;;;6.47;3.80;;;21.40;27.90;;;;;;10406556;28;20229;-76
2023/07/03 23:07:46;;;;;;;4.90;3.60;;;21.30;27.80;;;;;;10405671;28;20309;-75
2023/07/03 23:12:49;;;;;;;5.50;3.80;;;21.30;28.70;;;;;;10405213;28;20259;-75
2023/07/03 23:17:53;;;;;;;5.50;3.80;;;21.40;28.50;;;;;;10404685;28;20230;-76
2023/07/03 23:22:57;;;;;;;4.50;3.80;;;21.40;28.40;;;;;;10406635;28;20229;-75
2023/07/03 23:28:00;;;;;;;4.37;3.70;;;21.40;28.90;;;;;;10405439;28;20993;-76
2023/07/03 23:33:04;;;;;;;4.60;3.60;;;21.40;28.50;;;;;;10407845;28;20321;-75
2023/07/03 23:38:09;;;;;;;4.57;3.67;;;21.30;28.70;;;;;;10395899;28;20249;-75
2023/07/03 23:43:13;;;;;;;4.10;3.70;;;21.40;29.20;;;;;;10400829;28;20259;-76
2023/07/03 23:48:16;;;;;;;3.90;3.50;;;21.40;28.90;;;;;;10408290;28;20308;-75
2023/07/03 23:53:23;;;;;;;4.10;3.30;;;21.40;28.80;;;;;;10405346;28;20230;-75
2023/07/03 23:58:26;;;;;;;4.53;3.70;;;21.40;29.60;;;;;;10403256;28;20229;-75
